createdAt,value
2017-06-27T00:01:28.301Z,5.43
2017-06-27T00:03:55.845Z,4.70
2017-06-27T00:06:23.354Z,4.63
2017-06-27T00:08:50.977Z,5.00
2017-06-27T00:11:18.581Z,4.70
2017-06-27T00:13:46.110Z,5.23
2017-06-27T00:16:13.679Z,5.13
2017-06-27T00:18:43.451Z,5.37
2017-06-27T00:21:10.956Z,4.70
2017-06-27T00:23:38.504Z,5.27
2017-06-27T00:26:06.990Z,5.00
2017-06-27T00:28:34.519Z,4.80
2017-06-27T00:31:02.038Z,4.93
2017-06-27T00:33:29.609Z,6.37
2017-06-27T00:35:57.125Z,4.90
2017-06-27T00:38:26.173Z,5.30
2017-06-27T00:40:53.759Z,4.73
2017-06-27T00:43:21.272Z,4.60
2017-06-27T00:45:48.806Z,4.40
2017-06-27T00:48:16.350Z,5.73
2017-06-27T00:50:43.846Z,5.03
2017-06-27T00:53:11.406Z,5.43
2017-06-27T00:55:39.804Z,5.20
2017-06-27T00:58:07.373Z,4.67
2017-06-27T01:00:34.970Z,5.00
2017-06-27T01:03:03.509Z,5.07
2017-06-27T01:05:31.074Z,4.90
2017-06-27T01:07:58.590Z,5.67
2017-06-27T01:10:27.653Z,4.90
2017-06-27T01:12:55.166Z,4.80
2017-06-27T01:15:22.668Z,5.60
2017-06-27T01:17:50.241Z,5.53
2017-06-27T01:20:17.770Z,5.07
2017-06-27T01:22:45.284Z,5.83
2017-06-27T01:25:12.825Z,5.40
2017-06-27T01:27:40.386Z,5.63
2017-06-27T01:30:08.325Z,5.40
2017-06-27T01:32:35.939Z,5.70
2017-06-27T01:35:03.467Z,7.23
2017-06-27T01:37:31.043Z,16.87
2017-06-27T01:39:59.768Z,27.03
2017-06-27T01:42:27.279Z,16.80
2017-06-27T01:44:54.841Z,13.23
2017-06-27T01:47:22.391Z,15.90
2017-06-27T01:49:49.921Z,16.67
2017-06-27T01:52:17.498Z,17.27
2017-06-27T01:54:45.082Z,17.87
2017-06-27T01:57:12.622Z,16.70
2017-06-27T01:59:40.155Z,16.50
2017-06-27T02:02:08.523Z,16.20
2017-06-27T02:04:36.081Z,20.40
2017-06-27T02:07:03.667Z,29.70
2017-06-27T02:09:32.119Z,26.97
2017-06-27T02:12:00.569Z,27.43
2017-06-27T02:14:28.080Z,27.77
2017-06-27T02:16:55.685Z,24.10
2017-06-27T02:19:23.236Z,25.70
2017-06-27T02:21:50.894Z,22.93
2017-06-27T02:24:18.895Z,23.20
2017-06-27T02:26:46.432Z,24.67
2017-06-27T02:29:14.064Z,24.33
2017-06-27T02:31:41.681Z,20.40
2017-06-27T02:34:09.917Z,19.00
2017-06-27T02:36:37.448Z,19.27
2017-06-27T02:39:05.818Z,15.07
2017-06-27T02:41:33.354Z,11.87
2017-06-27T02:44:01.103Z,11.10
2017-06-27T02:46:28.644Z,10.93
2017-06-27T02:48:56.161Z,23.63
2017-06-27T02:51:23.894Z,28.20
2017-06-27T02:53:52.962Z,22.37
2017-06-27T02:56:20.486Z,18.20
2017-06-27T02:58:48.006Z,17.13
2017-06-27T03:01:15.555Z,16.97
2017-06-27T03:03:43.068Z,16.67
2017-06-27T03:06:10.636Z,19.30
2017-06-27T03:08:39.922Z,14.60
2017-06-27T03:11:08.318Z,18.47
2017-06-27T03:13:35.839Z,16.97
2017-06-27T03:16:03.538Z,14.50
2017-06-27T03:18:31.076Z,13.23
2017-06-27T03:20:58.590Z,12.40
2017-06-27T03:23:26.145Z,11.67
2017-06-27T03:25:53.787Z,10.23
2017-06-27T03:28:21.293Z,11.13
2017-06-27T03:30:48.832Z,10.60
2017-06-27T03:33:16.380Z,9.67
2017-06-27T03:35:43.893Z,10.03
2017-06-27T03:38:12.540Z,10.47
2017-06-27T03:40:40.861Z,9.80
2017-06-27T03:43:08.404Z,13.00
2017-06-27T03:45:36.627Z,11.07
2017-06-27T03:48:05.286Z,9.70
2017-06-27T03:50:33.139Z,9.20
2017-06-27T03:53:00.709Z,8.63
2017-06-27T03:55:28.245Z,8.60
2017-06-27T03:57:55.756Z,9.40
2017-06-27T04:00:23.328Z,8.47
2017-06-27T04:02:50.834Z,9.00
2017-06-27T04:05:18.348Z,9.10
2017-06-27T04:07:45.975Z,8.60
2017-06-27T04:10:13.488Z,9.10
2017-06-27T04:12:41.000Z,8.60
2017-06-27T04:15:08.571Z,8.80
2017-06-27T04:17:36.277Z,8.30
2017-06-27T04:20:04.874Z,9.47
2017-06-27T04:22:32.436Z,8.13
2017-06-27T04:24:59.954Z,8.60
2017-06-27T04:27:27.531Z,9.50
2017-06-27T04:29:55.094Z,10.00
2017-06-27T04:32:22.610Z,8.20
2017-06-27T04:34:50.118Z,8.83
2017-06-27T04:37:19.474Z,8.70
2017-06-27T04:39:46.995Z,8.60
2017-06-27T04:42:14.565Z,8.13
2017-06-27T04:44:42.156Z,7.53
2017-06-27T04:47:09.678Z,8.00
2017-06-27T04:49:37.337Z,8.77
2017-06-27T04:52:05.786Z,9.07
2017-06-27T04:54:33.297Z,10.37
2017-06-27T04:57:00.970Z,8.83
2017-06-27T04:59:28.518Z,8.60
2017-06-27T05:01:57.029Z,9.50
2017-06-27T05:04:24.655Z,9.27
2017-06-27T05:06:52.300Z,10.03
2017-06-27T05:09:19.819Z,9.00
2017-06-27T05:11:47.430Z,8.80
2017-06-27T05:14:14.986Z,9.40
2017-06-27T05:16:43.457Z,8.70
2017-06-27T05:19:11.016Z,10.57
2017-06-27T05:21:38.601Z,9.40
2017-06-27T05:24:06.096Z,8.90
2017-06-27T05:26:34.249Z,9.97
2017-06-27T05:29:09.198Z,11.30
2017-06-27T05:31:36.718Z,10.63
2017-06-27T05:34:04.305Z,10.73
2017-06-27T05:36:31.849Z,11.10
2017-06-27T05:38:59.426Z,13.07
2017-06-27T05:41:26.962Z,12.10
2017-06-27T05:43:55.350Z,12.53
2017-06-27T05:46:26.362Z,13.70
2017-06-27T05:48:53.864Z,12.33
2017-06-27T05:51:21.399Z,12.13
2017-06-27T05:53:49.240Z,13.10
2017-06-27T05:56:16.851Z,13.07
2017-06-27T05:58:46.278Z,11.57
2017-06-27T06:01:13.820Z,12.63
2017-06-27T06:03:41.379Z,15.33
2017-06-27T06:06:09.424Z,14.00
2017-06-27T06:08:45.824Z,13.40
2017-06-27T06:11:13.516Z,13.40
2017-06-27T06:13:41.078Z,11.60
2017-06-27T06:16:08.624Z,13.13
2017-06-27T06:18:36.182Z,13.90
2017-06-27T06:21:03.754Z,13.40
2017-06-27T06:23:31.329Z,13.30
2017-06-27T06:25:58.886Z,11.93
2017-06-27T06:28:26.715Z,14.63
2017-06-27T06:30:54.311Z,13.77
2017-06-27T06:33:22.963Z,13.83
2017-06-27T06:35:50.478Z,14.43
2017-06-27T06:38:18.073Z,13.53
2017-06-27T06:40:45.678Z,12.53
2017-06-27T06:43:13.199Z,13.30
2017-06-27T06:45:41.106Z,14.67
2017-06-27T06:48:08.626Z,13.50
2017-06-27T06:50:36.190Z,13.67
2017-06-27T06:53:03.782Z,12.80
2017-06-27T06:55:31.342Z,13.87
2017-06-27T06:57:58.882Z,13.37
2017-06-27T07:00:26.440Z,13.00
2017-06-27T07:02:53.976Z,13.50
2017-06-27T07:05:21.571Z,13.80
2017-06-27T07:07:49.140Z,13.50
2017-06-27T07:10:16.769Z,13.60
2017-06-27T07:12:44.311Z,12.67
2017-06-27T07:15:11.883Z,15.03
2017-06-27T07:17:39.405Z,14.03
2017-06-27T07:20:06.905Z,13.13
2017-06-27T07:22:34.479Z,12.70
2017-06-27T07:25:02.021Z,11.80
2017-06-27T07:27:29.520Z,12.90
2017-06-27T07:29:57.128Z,13.37
2017-06-27T07:32:24.718Z,12.90
2017-06-27T07:34:52.458Z,13.00
2017-06-27T07:37:19.986Z,14.37
2017-06-27T07:39:47.551Z,13.63
2017-06-27T07:42:15.066Z,14.70
2017-06-27T07:44:42.908Z,13.83
2017-06-27T07:47:10.489Z,11.40
2017-06-27T07:49:38.013Z,9.93
2017-06-27T07:52:05.532Z,11.07
2017-06-27T07:54:33.146Z,12.97
2017-06-27T07:57:02.278Z,11.20
2017-06-27T07:59:29.965Z,12.47
2017-06-27T08:01:57.553Z,11.13
2017-06-27T08:04:25.074Z,11.23
2017-06-27T08:06:52.629Z,11.87
2017-06-27T08:09:20.272Z,13.23
2017-06-27T08:11:47.805Z,12.43
2017-06-27T08:14:15.594Z,13.57
2017-06-27T08:16:43.157Z,12.90
2017-06-27T08:19:11.037Z,13.10
2017-06-27T08:21:38.542Z,13.83
2017-06-27T08:24:06.077Z,12.93
2017-06-27T08:26:33.634Z,13.50
2017-06-27T08:29:01.166Z,13.27
2017-06-27T08:31:28.736Z,13.63
2017-06-27T08:33:56.307Z,12.83
2017-06-27T08:36:23.888Z,14.40
2017-06-27T08:38:51.493Z,13.53
2017-06-27T08:41:19.058Z,13.77
2017-06-27T08:43:46.575Z,13.00
2017-06-27T08:46:14.188Z,12.70
2017-06-27T08:48:41.714Z,12.30
2017-06-27T08:51:09.213Z,12.27
2017-06-27T08:53:36.819Z,13.10
2017-06-27T08:56:04.380Z,13.60
2017-06-27T08:58:31.910Z,13.80
2017-06-27T09:00:59.483Z,14.17
2017-06-27T09:03:27.053Z,13.40
2017-06-27T09:05:54.617Z,12.70
2017-06-27T09:08:22.199Z,14.80
2017-06-27T09:10:49.764Z,15.33
2017-06-27T09:13:17.283Z,13.93
2017-06-27T09:15:44.908Z,14.00
2017-06-27T09:18:12.426Z,14.37
2017-06-27T09:20:40.006Z,14.77
2017-06-27T09:23:07.574Z,14.00
2017-06-27T09:25:35.181Z,15.50
2017-06-27T09:28:02.700Z,14.60
2017-06-27T09:30:30.448Z,14.20
2017-06-27T09:32:58.618Z,13.40
2017-06-27T09:35:26.134Z,13.30
2017-06-27T09:37:53.705Z,13.97
2017-06-27T09:40:21.264Z,15.70
2017-06-27T09:42:48.787Z,15.10
2017-06-27T09:45:16.360Z,15.77
2017-06-27T09:47:43.876Z,14.60
2017-06-27T09:50:11.467Z,18.30
2017-06-27T09:52:39.082Z,16.63
2017-06-27T09:55:06.621Z,16.10
2017-06-27T09:57:34.142Z,16.03
2017-06-27T10:00:01.687Z,16.33
2017-06-27T10:02:29.235Z,17.37
2017-06-27T10:04:57.624Z,14.93
2017-06-27T10:07:25.147Z,15.53
2017-06-27T10:09:52.695Z,15.70
2017-06-27T10:12:20.260Z,16.80
2017-06-27T10:14:47.783Z,15.47
2017-06-27T10:17:15.561Z,14.50
2017-06-27T10:19:43.082Z,15.23
2017-06-27T10:22:10.631Z,15.03
2017-06-27T10:24:38.552Z,15.83
2017-06-27T10:27:06.090Z,15.80
2017-06-27T10:29:33.618Z,15.83
2017-06-27T10:32:01.200Z,16.03
2017-06-27T10:34:28.709Z,16.00
2017-06-27T10:36:56.779Z,15.17
2017-06-27T10:39:24.366Z,14.60
2017-06-27T10:41:52.111Z,15.20
2017-06-27T10:44:19.668Z,13.90
2017-06-27T10:46:47.219Z,13.70
2017-06-27T10:49:14.802Z,14.03
2017-06-27T10:51:42.328Z,13.53
2017-06-27T10:54:09.939Z,13.80
2017-06-27T10:56:37.518Z,13.83
2017-06-27T10:59:05.791Z,13.33
2017-06-27T11:01:33.359Z,14.17
2017-06-27T11:04:00.884Z,13.20
2017-06-27T11:06:28.393Z,13.83
2017-06-27T11:08:55.961Z,13.90
2017-06-27T11:11:23.753Z,12.80
2017-06-27T11:13:51.263Z,14.50
2017-06-27T11:16:18.821Z,14.30
2017-06-27T11:18:46.334Z,14.27
2017-06-27T11:21:13.863Z,13.40
2017-06-27T11:23:41.410Z,13.37
2017-06-27T11:26:08.921Z,13.30
2017-06-27T11:28:36.435Z,13.47
2017-06-27T11:31:04.204Z,14.77
2017-06-27T11:33:31.740Z,16.67
2017-06-27T11:35:59.320Z,14.27
2017-06-27T11:38:26.885Z,14.03
2017-06-27T11:40:54.396Z,13.67
2017-06-27T11:43:21.903Z,12.70
2017-06-27T11:45:49.468Z,13.30
2017-06-27T11:48:17.212Z,14.07
2017-06-27T11:50:44.740Z,12.70
2017-06-27T11:53:12.288Z,12.33
2017-06-27T11:55:39.793Z,13.20
2017-06-27T11:58:07.313Z,12.47
2017-06-27T12:00:46.993Z,12.30
2017-06-27T12:03:26.442Z,12.83
2017-06-27T12:06:05.667Z,13.80
2017-06-27T12:08:33.200Z,12.40
2017-06-27T12:11:00.706Z,12.97
2017-06-27T12:13:28.244Z,12.47
2017-06-27T12:15:55.813Z,12.60
2017-06-27T12:18:23.374Z,12.83
2017-06-27T12:20:50.958Z,12.30
2017-06-27T12:23:18.491Z,12.80
2017-06-27T12:25:46.011Z,13.17
2017-06-27T12:28:13.588Z,13.27
2017-06-27T12:30:41.161Z,12.13
2017-06-27T12:33:08.673Z,11.73
2017-06-27T12:35:36.203Z,12.30
2017-06-27T12:38:05.059Z,10.33
2017-06-27T12:40:32.657Z,10.60
2017-06-27T12:43:00.197Z,11.43
2017-06-27T12:45:27.803Z,11.30
2017-06-27T12:47:55.336Z,10.90
2017-06-27T12:50:22.860Z,12.33
2017-06-27T12:52:50.405Z,11.07
2017-06-27T12:55:17.919Z,12.03
2017-06-27T12:57:45.448Z,11.23
2017-06-27T13:00:13.143Z,11.80
2017-06-27T13:02:40.711Z,11.37
2017-06-27T13:05:08.262Z,11.67
2017-06-27T13:07:35.837Z,11.50
2017-06-27T13:10:03.376Z,11.43
2017-06-27T13:12:30.947Z,9.60
2017-06-27T13:14:58.561Z,9.97
2017-06-27T13:17:26.070Z,10.33
2017-06-27T13:19:53.592Z,11.33
2017-06-27T13:22:21.179Z,10.30
2017-06-27T13:24:48.689Z,9.57
2017-06-27T13:27:16.218Z,10.67
2017-06-27T13:29:43.799Z,10.37
2017-06-27T13:32:11.345Z,10.17
2017-06-27T13:34:38.854Z,11.00
2017-06-27T13:37:06.381Z,9.43
2017-06-27T13:39:33.908Z,9.50
2017-06-27T13:42:01.411Z,9.03
2017-06-27T13:44:28.916Z,8.80
2017-06-27T13:46:56.511Z,8.73
2017-06-27T13:49:24.045Z,7.80
2017-06-27T13:51:51.608Z,9.17
2017-06-27T13:54:19.160Z,9.20
2017-06-27T13:56:46.684Z,9.50
2017-06-27T13:59:14.208Z,9.87
2017-06-27T14:01:41.798Z,10.37
2017-06-27T14:04:09.317Z,9.90
2017-06-27T14:06:36.837Z,8.20
2017-06-27T14:09:04.398Z,8.17
2017-06-27T14:11:31.902Z,9.10
2017-06-27T14:13:59.476Z,10.03
2017-06-27T14:16:27.043Z,9.20
2017-06-27T14:18:54.539Z,9.27
2017-06-27T14:21:22.071Z,9.73
2017-06-27T14:23:49.640Z,8.90
2017-06-27T14:26:17.383Z,8.10
2017-06-27T14:28:45.047Z,8.90
2017-06-27T14:31:12.670Z,8.73
2017-06-27T14:33:40.255Z,10.07
2017-06-27T14:36:07.808Z,11.43
2017-06-27T14:38:35.426Z,10.37
2017-06-27T14:41:02.936Z,8.43
2017-06-27T14:43:30.430Z,9.07
2017-06-27T14:45:57.985Z,8.40
2017-06-27T14:48:25.542Z,9.60
2017-06-27T14:50:53.433Z,9.10
2017-06-27T14:53:20.986Z,9.30
2017-06-27T14:55:48.899Z,8.50
2017-06-27T14:58:16.442Z,10.17
2017-06-27T15:00:44.036Z,10.13
2017-06-27T15:03:11.572Z,11.90
2017-06-27T15:05:39.104Z,11.30
2017-06-27T15:08:06.698Z,9.87
2017-06-27T15:10:34.237Z,8.20
2017-06-27T15:13:01.743Z,8.17
2017-06-27T15:15:29.296Z,8.60
2017-06-27T15:17:57.022Z,7.63
2017-06-27T15:20:24.525Z,7.87
2017-06-27T15:22:52.077Z,7.80
2017-06-27T15:25:19.624Z,8.83
2017-06-27T15:27:47.182Z,8.97
2017-06-27T15:30:14.742Z,13.13
2017-06-27T15:32:42.302Z,7.70
2017-06-27T15:35:09.862Z,7.13
2017-06-27T15:37:38.370Z,5.37
2017-06-27T15:40:05.943Z,6.90
2017-06-27T15:42:33.981Z,9.63
2017-06-27T15:45:01.543Z,9.47
2017-06-27T15:47:29.076Z,7.40
2017-06-27T15:49:56.676Z,6.30
2017-06-27T15:52:24.251Z,7.27
2017-06-27T15:54:51.773Z,6.47
2017-06-27T15:57:19.283Z,6.00
2017-06-27T15:59:46.842Z,5.80
2017-06-27T16:02:14.434Z,6.20
2017-06-27T16:04:41.942Z,5.60
2017-06-27T16:07:09.547Z,5.57
2017-06-27T16:09:38.103Z,6.50
2017-06-27T16:12:05.601Z,7.60
2017-06-27T16:14:33.106Z,6.63
2017-06-27T16:17:00.704Z,6.20
2017-06-27T16:19:28.219Z,6.70
2017-06-27T16:21:55.746Z,7.17
2017-06-27T16:24:23.304Z,7.13
2017-06-27T16:26:50.832Z,5.93
2017-06-27T16:29:18.340Z,6.00
2017-06-27T16:31:45.898Z,6.30
2017-06-27T16:34:13.457Z,8.00
2017-06-27T16:36:40.997Z,8.60
2017-06-27T16:39:08.624Z,6.70
2017-06-27T16:41:37.088Z,10.30
2017-06-27T16:44:04.646Z,6.70
2017-06-27T17:06:29.416Z,7.33
2017-06-27T17:08:57.029Z,7.10
2017-06-27T17:11:24.544Z,7.10
2017-06-27T17:13:52.418Z,6.80
2017-06-27T17:16:20.022Z,7.07
2017-06-27T17:18:47.885Z,6.40
2017-06-27T17:21:15.447Z,6.80
2017-06-27T17:23:42.955Z,6.33
2017-06-27T17:26:10.476Z,5.00
2017-06-27T17:28:38.085Z,6.77
2017-06-27T17:31:05.628Z,6.43
2017-06-27T17:33:33.130Z,5.80
2017-06-27T17:36:00.665Z,6.53
2017-06-27T17:38:28.239Z,6.20
2017-06-27T17:40:55.892Z,6.37
2017-06-27T17:43:23.421Z,7.93
2017-06-27T17:45:50.971Z,7.97
2017-06-27T17:48:18.477Z,8.13
2017-06-27T17:50:46.116Z,6.80
2017-06-27T17:53:13.758Z,6.47
2017-06-27T17:55:41.298Z,6.07
2017-06-27T17:58:09.085Z,7.10
2017-06-27T18:00:37.789Z,6.83
2017-06-27T18:03:05.311Z,6.47
2017-06-27T18:05:32.824Z,6.10
2017-06-27T18:08:00.394Z,6.70
2017-06-27T18:10:27.900Z,6.10
2017-06-27T18:12:55.453Z,6.23
2017-06-27T18:15:23.064Z,6.10
2017-06-27T18:17:50.585Z,9.27
2017-06-27T18:20:19.072Z,7.27
2017-06-27T18:22:46.998Z,6.70
2017-06-27T18:25:14.532Z,5.60
2017-06-27T18:27:42.572Z,6.03
2017-06-27T18:30:10.652Z,6.67
2017-06-27T18:32:38.249Z,7.87
2017-06-27T18:35:05.807Z,6.70
2017-06-27T18:37:33.480Z,7.13
2017-06-27T18:40:01.470Z,8.00
2017-06-27T18:42:29.084Z,7.60
2017-06-27T18:44:57.038Z,8.03
2017-06-27T18:47:24.560Z,7.70
2017-06-27T18:49:52.388Z,8.20
2017-06-27T18:52:19.952Z,6.03
2017-06-27T18:54:47.476Z,7.63
2017-06-27T18:57:15.114Z,7.53
2017-06-27T18:59:43.452Z,7.43
2017-06-27T19:02:11.034Z,7.53
2017-06-27T19:04:38.562Z,8.60
2017-06-27T19:07:06.066Z,7.70
2017-06-27T19:09:33.704Z,7.10
2017-06-27T19:12:01.266Z,7.50
2017-06-27T19:14:28.777Z,7.20
2017-06-27T19:16:56.322Z,8.30
2017-06-27T19:19:23.963Z,7.40
2017-06-27T19:21:51.474Z,7.33
2017-06-27T19:24:19.005Z,8.50
2017-06-27T19:26:46.517Z,8.20
2017-06-27T19:29:14.076Z,8.47
2017-06-27T19:31:41.694Z,8.33
2017-06-27T19:34:09.263Z,8.20
2017-06-27T19:36:36.766Z,6.90
2017-06-27T19:39:04.404Z,7.87
2017-06-27T19:44:08.629Z,8.60
2017-06-27T19:46:36.278Z,7.53
2017-06-27T19:49:03.778Z,8.43
2017-06-27T19:51:31.327Z,7.73
2017-06-27T19:53:58.836Z,7.80
2017-06-27T19:56:26.350Z,8.20
2017-06-27T19:58:53.913Z,7.87
2017-06-27T20:01:21.503Z,7.73
2017-06-27T20:03:49.071Z,7.67
2017-06-27T20:06:16.581Z,8.47
2017-06-27T20:08:44.128Z,8.50
2017-06-27T20:11:11.706Z,8.23
2017-06-27T20:13:39.223Z,8.83
2017-06-27T20:16:06.758Z,8.90
2017-06-27T20:18:34.269Z,8.20
2017-06-27T20:21:01.842Z,8.60
2017-06-27T20:23:29.691Z,8.50
2017-06-27T20:25:57.205Z,13.63
2017-06-27T20:28:24.717Z,24.57
2017-06-27T20:30:52.269Z,29.60
2017-06-27T20:33:19.834Z,19.70
2017-06-27T20:35:47.348Z,19.60
2017-06-27T20:38:14.936Z,24.20
2017-06-27T20:40:42.461Z,26.40
2017-06-27T20:43:09.996Z,32.07
2017-06-27T20:45:37.540Z,37.20
2017-06-27T20:48:05.116Z,34.33
2017-06-27T20:50:32.629Z,28.20
2017-06-27T20:53:00.280Z,19.60
2017-06-27T20:55:27.805Z,15.20
2017-06-27T20:57:55.334Z,14.00
2017-06-27T21:00:23.234Z,12.10
2017-06-27T21:02:50.753Z,10.70
2017-06-27T21:05:18.284Z,9.13
2017-06-27T21:07:45.842Z,9.23
2017-06-27T21:10:13.356Z,9.57
2017-06-27T21:12:40.879Z,9.63
2017-06-27T21:15:08.422Z,8.50
2017-06-27T21:17:36.000Z,7.70
2017-06-27T21:20:03.511Z,6.83
2017-06-27T21:22:31.089Z,7.70
2017-06-27T21:24:58.604Z,8.03
2017-06-27T21:27:26.108Z,8.50
2017-06-27T21:29:53.662Z,7.80
2017-06-27T21:32:21.215Z,8.93
2017-06-27T21:34:48.718Z,7.73
2017-06-27T21:37:16.239Z,8.60
2017-06-27T21:39:43.798Z,7.47
2017-06-27T21:42:11.305Z,7.80
2017-06-27T21:44:38.807Z,8.03
2017-06-27T21:47:06.937Z,8.80
2017-06-27T21:49:34.434Z,8.13
2017-06-27T21:52:01.968Z,8.20
2017-06-27T21:54:29.572Z,7.67
2017-06-27T21:56:57.085Z,8.10
2017-06-27T21:59:24.582Z,8.00
2017-06-27T22:01:52.149Z,7.73
2017-06-27T22:04:19.705Z,7.30
2017-06-27T22:06:47.252Z,7.57
2017-06-27T22:09:14.786Z,7.40
2017-06-27T22:11:42.517Z,7.80
2017-06-27T22:14:10.017Z,7.70
2017-06-27T22:16:37.553Z,7.00
2017-06-27T22:19:05.114Z,8.03
2017-06-27T22:21:32.623Z,7.27
2017-06-27T22:24:00.208Z,8.50
2017-06-27T22:26:27.741Z,9.57
2017-06-27T22:28:55.260Z,8.20
2017-06-27T22:31:22.834Z,7.13
2017-06-27T22:33:50.338Z,7.60
2017-06-27T22:36:18.101Z,7.40
2017-06-27T22:38:45.632Z,7.20
2017-06-27T22:41:13.164Z,8.67
2017-06-27T22:43:40.680Z,8.20
2017-06-27T22:46:08.210Z,6.77
2017-06-27T22:48:35.728Z,7.87
2017-06-27T22:51:03.298Z,7.20
2017-06-27T22:53:31.087Z,7.40
2017-06-27T22:55:58.605Z,7.17
2017-06-27T22:58:26.118Z,6.63
2017-06-27T23:00:53.699Z,8.33
2017-06-27T23:03:21.248Z,7.30
2017-06-27T23:05:48.800Z,6.40
2017-06-27T23:08:16.359Z,6.60
2017-06-27T23:10:44.147Z,6.90
2017-06-27T23:13:11.653Z,6.97
2017-06-27T23:15:39.210Z,6.50
2017-06-27T23:18:07.043Z,6.93
2017-06-27T23:20:34.558Z,7.10
2017-06-27T23:23:02.115Z,6.73
2017-06-27T23:25:29.613Z,7.20
2017-06-27T23:27:57.166Z,7.47
2017-06-27T23:30:25.122Z,7.60
2017-06-27T23:32:52.641Z,8.50
2017-06-27T23:35:20.153Z,8.27
2017-06-27T23:37:47.705Z,8.67
2017-06-27T23:40:15.203Z,8.37
2017-06-27T23:42:42.724Z,8.50
2017-06-27T23:45:10.529Z,8.37
2017-06-27T23:47:38.048Z,7.73
2017-06-27T23:50:05.548Z,8.53
2017-06-27T23:52:33.390Z,8.50
2017-06-27T23:55:00.959Z,9.70
2017-06-27T23:57:28.465Z,8.20
2017-06-27T23:59:55.997Z,7.80
